Time;durP1;ratioP1;P1;durP2;ratioP2;P2;SDS_P1;SDS_P2;PMS_P1;PMS_P2;Temp;Humidity;BMP_temperature;BMP_pressure;BME280_temperature;BME280_humidity;BME280_pressure;Samples;Min_cycle;Max_cycle;Signal;HPM_P1;HPM_P2
2023/05/22 00:02:25;;;;;;;;;;;;;;;22.03;49.51;100329.28;5367388;32;34569;-69
2023/05/22 00:05:27;;;;;;;;;;;;;;;21.05;52.29;100337.66;5362569;32;34668;-70
2023/05/22 00:08:29;;;;;;;;;;;;;;;21.37;51.67;100334.97;5375342;32;34139;-69
2023/05/22 00:11:33;;;;;;;;;;;;;;;21.71;50.48;100328.56;5363251;32;35015;-70
2023/05/22 00:14:35;;;;;;;;;;;;;;;21.08;51.95;100326.72;5372885;32;36759;-69
2023/05/22 00:17:37;;;;;;;;;;;;;;;21.59;51.10;100331.31;5348777;32;34568;-67
2023/05/22 00:20:39;;;;;;;;;;;;;;;21.12;51.47;100337.12;5366381;32;34607;-70
2023/05/22 00:23:41;;;;;;;;;;;;;;;20.76;52.75;100336.56;5375844;32;35596;-70
2023/05/22 00:26:44;;;;;;;;;;;;;;;21.30;51.79;100333.78;5365089;32;35401;-70
2023/05/22 00:29:46;;;;;;;;;;;;;;;21.85;50.11;100330.91;5372267;32;44690;-66
2023/05/22 00:32:48;;;;;;;;;;;;;;;22.00;49.19;100339.41;5363138;32;34434;-67
2023/05/22 00:35:50;;;;;;;;;;;;;;;21.66;49.88;100346.84;5351389;32;35131;-68
2023/05/22 00:38:52;;;;;;;;;;;;;;;20.87;51.65;100343.69;5358787;32;35504;-68
2023/05/22 00:41:54;;;;;;;;;;;;;;;20.59;52.98;100332.59;5365931;32;34644;-70
2023/05/22 00:44:56;;;;;;;;;;;;;;;20.44;52.71;100345.34;5370627;32;34975;-69
2023/05/22 00:47:57;;;;;;;;;;;;;;;21.31;49.48;100340.00;5345447;32;35444;-67
2023/05/22 00:51:00;;;;;;;;;;;;;;;21.24;50.39;100341.44;5368890;32;34442;-68
2023/05/22 00:54:02;;;;;;;;;;;;;;;20.67;50.94;100337.31;5363813;32;35211;-69
2023/05/22 00:57:04;;;;;;;;;;;;;;;20.35;51.34;100335.44;5372856;32;35428;-70
2023/05/22 01:00:09;;;;;;;;;;;;;;;20.07;51.53;100333.25;5350589;32;34969;-70
2023/05/22 01:03:12;;;;;;;;;;;;;;;20.79;50.17;100331.81;5365264;32;34350;-71
2023/05/22 01:06:15;;;;;;;;;;;;;;;21.28;48.73;100333.09;5369514;32;34759;-73
2023/05/22 01:09:16;;;;;;;;;;;;;;;20.72;49.88;100335.09;5365223;32;47201;-69
2023/05/22 01:12:24;;;;;;;;;;;;;;;20.53;49.87;100328.59;5371064;32;34918;-68
2023/05/22 01:15:29;;;;;;;;;;;;;;;20.01;51.77;100324.75;5349186;32;35183;-67
2023/05/22 01:18:33;;;;;;;;;;;;;;;20.39;50.47;100320.84;5370955;32;35906;-69
2023/05/22 01:21:44;;;;;;;;;;;;;;;21.40;47.97;100328.53;5369401;32;35483;-67
2023/05/22 01:24:59;;;;;;;;;;;;;;;20.52;49.37;100323.41;5373336;32;47237;-69
2023/05/22 01:28:19;;;;;;;;;;;;;;;20.08;51.01;100324.28;5372203;32;35274;-68
2023/05/22 01:31:23;;;;;;;;;;;;;;;19.75;52.28;100329.47;5361386;32;46959;-70
2023/05/22 01:34:25;;;;;;;;;;;;;;;20.16;51.29;100330.72;5367372;32;35014;-68
2023/05/22 01:37:27;;;;;;;;;;;;;;;20.00;51.96;100347.06;5348900;32;35594;-67
2023/05/22 01:40:29;;;;;;;;;;;;;;;20.48;50.39;100336.16;5366720;32;35492;-71
2023/05/22 01:43:34;;;;;;;;;;;;;;;20.75;49.76;100334.88;5369993;32;36042;-69
2023/05/22 01:46:36;;;;;;;;;;;;;;;21.10;48.58;100329.25;5365913;32;34892;-67
2023/05/22 01:49:38;;;;;;;;;;;;;;;19.37;53.75;100315.56;5355507;32;33992;-69
2023/05/22 01:52:43;;;;;;;;;;;;;;;19.33;53.55;100316.78;5361130;32;34088;-69
2023/05/22 01:55:47;;;;;;;;;;;;;;;20.70;49.98;100316.53;5367206;32;46975;-68
2023/05/22 01:58:51;;;;;;;;;;;;;;;20.82;49.50;100320.03;5367147;32;34868;-69
2023/05/22 02:01:53;;;;;;;;;;;;;;;20.24;51.12;100314.09;5362963;32;35059;-69
2023/05/22 02:04:56;;;;;;;;;;;;;;;19.29;53.56;100315.31;5371358;32;35159;-69
2023/05/22 02:07:58;;;;;;;;;;;;;;;19.40;53.17;100310.03;5366027;32;34314;-67
2023/05/22 02:11:00;;;;;;;;;;;;;;;19.84;52.06;100305.75;5369556;32;34890;-69
2023/05/22 02:14:02;;;;;;;;;;;;;;;19.71;51.84;100300.53;5363926;32;35068;-70
2023/05/22 02:17:04;;;;;;;;;;;;;;;20.59;49.44;100302.38;5365977;32;34908;-68
2023/05/22 02:20:13;;;;;;;;;;;;;;;20.78;49.04;100313.25;5367072;32;35206;-69
2023/05/22 02:23:16;;;;;;;;;;;;;;;20.07;50.15;100315.41;5368424;32;45498;-67
2023/05/22 02:26:18;;;;;;;;;;;;;;;19.51;51.71;100327.84;5370919;32;36277;-67
2023/05/22 02:29:20;;;;;;;;;;;;;;;19.14;52.74;100315.53;5362339;32;34963;-68
2023/05/22 02:32:22;;;;;;;;;;;;;;;19.11;53.05;100313.09;5371802;32;35334;-69
2023/05/22 02:35:24;;;;;;;;;;;;;;;20.15;50.05;100309.47;5345234;32;34766;-67
2023/05/22 02:38:26;;;;;;;;;;;;;;;19.67;51.12;100312.41;5355453;32;35113;-70
2023/05/22 02:41:28;;;;;;;;;;;;;;;19.31;52.36;100308.91;5370902;32;35551;-67
2023/05/22 02:44:30;;;;;;;;;;;;;;;18.60;54.69;100312.47;5363384;32;35365;-69
2023/05/22 02:47:32;;;;;;;;;;;;;;;19.31;52.95;100302.72;5357840;32;35111;-70
2023/05/22 02:50:34;;;;;;;;;;;;;;;19.73;51.80;100303.91;5353704;32;35657;-68
2023/05/22 02:53:38;;;;;;;;;;;;;;;19.68;52.20;100308.75;5357457;32;34844;-67
2023/05/22 02:56:41;;;;;;;;;;;;;;;18.72;55.02;100308.94;5361233;32;35483;-68
2023/05/22 02:59:43;;;;;;;;;;;;;;;18.85;55.12;100312.38;5367699;32;35141;-69
2023/05/22 03:02:46;;;;;;;;;;;;;;;18.87;55.31;100305.16;5366398;32;45778;-69
2023/05/22 03:05:48;;;;;;;;;;;;;;;18.63;55.93;100314.91;5360045;32;34921;-67
2023/05/22 03:08:51;;;;;;;;;;;;;;;18.73;55.85;100313.28;5372089;32;35170;-67
2023/05/22 03:11:53;;;;;;;;;;;;;;;18.96;55.69;100308.06;5360993;32;34950;-69
2023/05/22 03:14:55;;;;;;;;;;;;;;;19.42;54.24;100310.75;5376044;32;35183;-67
2023/05/22 03:17:57;;;;;;;;;;;;;;;18.75;56.38;100311.37;5362058;32;34183;-68
2023/05/22 03:20:59;;;;;;;;;;;;;;;18.82;56.27;100306.44;5364025;32;35360;-67
2023/05/22 03:24:01;;;;;;;;;;;;;;;18.30;58.45;100300.47;5373310;32;34854;-69
2023/05/22 03:27:03;;;;;;;;;;;;;;;18.33;58.18;100300.22;5362129;32;33904;-68
2023/05/22 03:30:06;;;;;;;;;;;;;;;19.18;55.75;100292.16;5370802;32;34505;-69
2023/05/22 03:33:08;;;;;;;;;;;;;;;17.90;59.78;100312.22;5361195;32;34497;-70
2023/05/22 03:36:10;;;;;;;;;;;;;;;19.33;55.65;100306.97;5345177;32;35316;-68
2023/05/22 03:39:12;;;;;;;;;;;;;;;18.74;57.12;100308.81;5360030;32;34977;-71
2023/05/22 03:42:15;;;;;;;;;;;;;;;18.97;56.25;100307.94;5364552;32;35369;-67
2023/05/22 03:45:17;;;;;;;;;;;;;;;18.98;56.49;100311.47;5372124;32;44044;-70
2023/05/22 03:48:19;;;;;;;;;;;;;;;19.01;56.73;100319.25;5330862;32;35198;-67
2023/05/22 03:51:20;;;;;;;;;;;;;;;19.07;55.98;100310.78;5371976;32;34338;-68
2023/05/22 03:54:22;;;;;;;;;;;;;;;19.13;55.86;100310.31;5363390;32;35572;-70
2023/05/22 03:57:24;;;;;;;;;;;;;;;19.09;56.37;100303.53;5372552;32;35324;-69
2023/05/22 04:00:26;;;;;;;;;;;;;;;18.91;56.59;100306.59;5365705;32;34335;-70
2023/05/22 04:03:28;;;;;;;;;;;;;;;18.99;56.61;100308.69;5374066;32;34258;-67
2023/05/22 04:06:31;;;;;;;;;;;;;;;19.19;55.92;100305.37;5372523;32;35024;-68
2023/05/22 04:09:34;;;;;;;;;;;;;;;19.49;54.63;100302.16;5362632;32;35131;-67
2023/05/22 04:12:36;;;;;;;;;;;;;;;19.35;55.71;100304.19;5371609;32;35566;-68
2023/05/22 04:15:40;;;;;;;;;;;;;;;19.08;55.76;100302.69;5362920;32;35225;-68
2023/05/22 04:18:42;;;;;;;;;;;;;;;19.15;54.66;100309.22;5373170;32;34851;-70
2023/05/22 04:21:44;;;;;;;;;;;;;;;19.28;54.04;100303.81;5370254;32;35063;-69
2023/05/22 04:24:47;;;;;;;;;;;;;;;19.19;53.96;100309.81;5364715;32;45349;-68
2023/05/22 04:27:49;;;;;;;;;;;;;;;20.04;51.21;100301.50;5372750;32;35615;-69
2023/05/22 04:30:53;;;;;;;;;;;;;;;19.56;52.68;100307.00;5361726;32;35009;-69
2023/05/22 04:33:55;;;;;;;;;;;;;;;19.90;51.89;100305.22;5373157;32;35701;-67
2023/05/22 04:36:58;;;;;;;;;;;;;;;20.20;50.43;100297.47;5326342;32;35248;-71
2023/05/22 04:40:02;;;;;;;;;;;;;;;19.88;51.22;100297.38;5369185;32;34902;-71
2023/05/22 04:43:04;;;;;;;;;;;;;;;19.61;51.24;100300.38;5365816;32;34786;-68
2023/05/22 04:46:07;;;;;;;;;;;;;;;19.47;51.75;100298.75;5362272;32;35847;-70
2023/05/22 04:49:10;;;;;;;;;;;;;;;19.77;51.07;100299.16;5355314;32;35517;-69
2023/05/22 04:52:12;;;;;;;;;;;;;;;19.66;51.34;100300.88;5347293;32;34885;-67
2023/05/22 04:55:14;;;;;;;;;;;;;;;19.65;51.25;100306.34;5372597;32;35485;-67
2023/05/22 04:58:16;;;;;;;;;;;;;;;19.80;51.14;100302.47;5348799;32;44652;-69
2023/05/22 05:01:18;;;;;;;;;;;;;;;19.79;50.72;100299.91;5368214;32;35544;-70
2023/05/22 05:04:20;;;;;;;;;;;;;;;19.71;50.75;100305.88;5366327;32;37302;-70
2023/05/22 05:07:23;;;;;;;;;;;;;;;19.98;50.07;100303.69;5370307;32;34865;-69
2023/05/22 05:10:25;;;;;;;;;;;;;;;20.39;48.58;100318.16;5374014;32;35234;-67
2023/05/22 05:13:27;;;;;;;;;;;;;;;20.27;48.37;100314.66;5344581;32;35373;-70
2023/05/22 05:16:29;;;;;;;;;;;;;;;20.65;47.36;100315.22;5366489;32;34411;-68
2023/05/22 05:19:31;;;;;;;;;;;;;;;20.93;46.65;100311.09;5363038;32;35020;-69
2023/05/22 05:22:38;;;;;;;;;;;;;;;21.58;44.87;100310.91;5366003;32;35259;-69
2023/05/22 05:25:40;;;;;;;;;;;;;;;21.23;45.57;100318.37;5356664;32;34863;-69
2023/05/22 05:28:42;;;;;;;;;;;;;;;22.15;43.38;100320.22;5365415;32;34448;-70
2023/05/22 05:31:44;;;;;;;;;;;;;;;22.56;42.65;100315.66;5365331;32;35130;-71
2023/05/22 05:34:46;;;;;;;;;;;;;;;22.26;43.21;100318.41;5354376;32;47022;-68
2023/05/22 05:37:48;;;;;;;;;;;;;;;21.64;44.34;100328.25;5351412;32;34715;-71
2023/05/22 05:40:50;;;;;;;;;;;;;;;22.22;42.85;100320.53;5365204;32;34472;-70
2023/05/22 05:43:52;;;;;;;;;;;;;;;21.97;43.48;100318.28;5367869;32;34358;-67
2023/05/22 05:46:54;;;;;;;;;;;;;;;21.26;44.99;100326.16;5361479;32;35327;-69
2023/05/22 05:49:56;;;;;;;;;;;;;;;21.08;44.44;100334.72;5352732;32;35438;-67
2023/05/22 05:52:58;;;;;;;;;;;;;;;21.35;43.77;100338.75;5373047;32;35809;-71
2023/05/22 05:56:00;;;;;;;;;;;;;;;22.37;41.83;100332.53;5366146;32;34405;-72
2023/05/22 05:59:03;;;;;;;;;;;;;;;22.87;41.19;100337.03;5360104;32;34328;-64
2023/05/22 06:02:05;;;;;;;;;;;;;;;23.14;40.46;100331.78;5366751;32;34369;-72
2023/05/22 06:05:07;;;;;;;;;;;;;;;23.44;39.44;100328.09;5368902;32;34286;-64
2023/05/22 06:08:10;;;;;;;;;;;;;;;23.04;41.47;100320.22;5365054;32;35203;-70
2023/05/22 06:11:12;;;;;;;;;;;;;;;21.57;43.34;100333.25;5363702;32;35288;-67
2023/05/22 06:14:14;;;;;;;;;;;;;;;21.80;43.38;100333.13;5374947;32;35126;-67
2023/05/22 06:17:16;;;;;;;;;;;;;;;23.66;39.77;100324.25;5364463;32;44594;-69
2023/05/22 06:20:18;;;;;;;;;;;;;;;23.34;39.93;100326.41;5369974;32;35416;-70
2023/05/22 06:23:20;;;;;;;;;;;;;;;22.71;42.53;100319.63;5369510;32;36181;-69
2023/05/22 06:26:24;;;;;;;;;;;;;;;23.17;41.43;100325.28;5373232;32;34215;-70
2023/05/22 06:29:26;;;;;;;;;;;;;;;23.75;39.74;100333.25;5375585;32;36275;-69
2023/05/22 06:32:28;;;;;;;;;;;;;;;23.96;39.46;100331.22;5371592;32;34177;-68
2023/05/22 06:35:31;;;;;;;;;;;;;;;23.34;40.24;100326.41;5362923;32;34455;-70
2023/05/22 06:38:33;;;;;;;;;;;;;;;23.52;40.50;100330.06;5365401;32;34272;-70
2023/05/22 06:41:35;;;;;;;;;;;;;;;24.50;37.74;100328.72;5375978;32;35441;-71
2023/05/22 06:44:37;;;;;;;;;;;;;;;24.42;37.99;100321.41;5372785;32;34351;-67
2023/05/22 06:47:39;;;;;;;;;;;;;;;25.84;35.64;100328.56;5354966;32;34790;-64
2023/05/22 06:50:41;;;;;;;;;;;;;;;27.06;32.50;100327.31;5373861;32;34911;-71
2023/05/22 06:53:43;;;;;;;;;;;;;;;27.33;31.29;100318.87;5365652;32;34740;-65
2023/05/22 06:56:45;;;;;;;;;;;;;;;27.38;30.41;100324.59;5377371;32;45185;-71
2023/05/22 06:59:47;;;;;;;;;;;;;;;26.55;32.23;100329.22;5371596;32;34224;-68
2023/05/22 07:02:49;;;;;;;;;;;;;;;26.99;30.76;100319.84;5383694;32;34588;-76
2023/05/22 07:05:52;;;;;;;;;;;;;;;28.87;27.48;100312.06;5364177;32;34276;-71
2023/05/22 07:08:54;;;;;;;;;;;;;;;28.48;26.93;100316.72;5375476;32;35859;-71
2023/05/22 07:11:56;;;;;;;;;;;;;;;29.02;25.41;100324.81;5374667;32;35519;-71
2023/05/22 07:14:58;;;;;;;;;;;;;;;30.66;23.14;100313.91;5368613;32;36145;-69
2023/05/22 07:18:01;;;;;;;;;;;;;;;30.40;23.76;100314.41;5378060;32;35528;-69
2023/05/22 07:21:03;;;;;;;;;;;;;;;28.83;26.44;100321.53;5364827;32;34312;-70
2023/05/22 07:24:08;;;;;;;;;;;;;;;30.15;24.20;100317.47;5374941;32;34217;-69
2023/05/22 07:27:11;;;;;;;;;;;;;;;28.95;25.06;100313.88;5370794;32;34455;-73
2023/05/22 07:30:13;;;;;;;;;;;;;;;32.06;20.64;100308.59;5368438;32;34289;-68
2023/05/22 07:33:15;;;;;;;;;;;;;;;31.95;21.00;100307.31;5378840;32;34403;-72
2023/05/22 07:36:17;;;;;;;;;;;;;;;28.44;25.88;100310.81;5331714;32;44558;-77
2023/05/22 07:39:19;;;;;;;;;;;;;;;29.51;24.23;100318.97;5376294;32;36108;-68
2023/05/22 07:42:22;;;;;;;;;;;;;;;27.15;27.22;100315.50;5369760;32;34256;-73
2023/05/22 07:45:25;;;;;;;;;;;;;;;26.48;28.78;100320.09;5360071;32;34467;-68
2023/05/22 07:48:27;;;;;;;;;;;;;;;25.95;29.85;100315.81;5338029;32;35942;-71
2023/05/22 07:51:30;;;;;;;;;;;;;;;25.04;31.72;100325.06;5360316;32;34396;-73
2023/05/22 07:54:32;;;;;;;;;;;;;;;26.15;30.24;100323.50;5378758;32;34537;-73
2023/05/22 07:57:35;;;;;;;;;;;;;;;27.07;28.88;100320.91;5377819;32;34407;-68
2023/05/22 08:00:36;;;;;;;;;;;;;;;26.36;30.01;100311.44;5373413;32;34342;-65
2023/05/22 08:03:38;;;;;;;;;;;;;;;26.61;29.66;100315.09;5372752;32;34389;-73
2023/05/22 08:06:42;;;;;;;;;;;;;;;27.69;28.04;100321.19;5375057;32;35578;-75
2023/05/22 08:09:47;;;;;;;;;;;;;;;28.30;27.53;100319.63;5375688;32;44483;-75
2023/05/22 08:12:49;;;;;;;;;;;;;;;30.80;24.04;100304.06;5372134;32;35533;-80
2023/05/22 08:15:51;;;;;;;;;;;;;;;30.97;23.60;100300.03;5377361;32;34269;-71
2023/05/22 08:19:01;;;;;;;;;;;;;;;31.62;22.83;100306.22;5372297;32;35387;-67
2023/05/22 08:22:04;;;;;;;;;;;;;;;32.83;20.86;100307.41;5378549;32;35720;-70
2023/05/22 08:25:06;;;;;;;;;;;;;;;32.71;21.39;100307.16;5368798;32;33551;-70
2023/05/22 08:28:08;;;;;;;;;;;;;;;33.30;20.21;100303.72;5385171;32;35523;-76
2023/05/22 08:31:10;;;;;;;;;;;;;;;31.09;23.02;100303.91;5380830;32;34378;-70
2023/05/22 08:34:13;;;;;;;;;;;;;;;32.41;21.56;100298.53;5383932;32;34336;-68
2023/05/22 08:37:15;;;;;;;;;;;;;;;31.96;21.78;100302.69;5361711;32;35149;-75
2023/05/22 08:40:17;;;;;;;;;;;;;;;32.16;21.61;100300.91;5358258;32;44575;-75
2023/05/22 08:43:20;;;;;;;;;;;;;;;33.37;20.19;100295.53;5380057;32;34249;-72
2023/05/22 08:46:24;;;;;;;;;;;;;;;33.82;19.66;100301.97;5372952;32;34366;-71
2023/05/22 08:49:27;;;;;;;;;;;;;;;33.66;19.99;100295.09;5356580;32;36094;-71
2023/05/22 08:52:34;;;;;;;;;;;;;;;31.06;23.16;100298.88;5374096;32;35690;-73
2023/05/22 08:55:36;;;;;;;;;;;;;;;31.53;22.58;100300.94;5370830;32;35949;-74
2023/05/22 08:58:38;;;;;;;;;;;;;;;33.08;20.55;100294.91;5373200;32;34519;-74
2023/05/22 09:01:40;;;;;;;;;;;;;;;31.99;21.93;100299.56;5368108;32;35801;-71
2023/05/22 09:04:42;;;;;;;;;;;;;;;31.00;23.50;100295.06;5367501;32;35765;-74
2023/05/22 09:07:47;;;;;;;;;;;;;;;30.32;24.78;100300.97;5358121;32;35681;-70
2023/05/22 09:10:49;;;;;;;;;;;;;;;30.01;24.62;100302.00;5355864;32;44834;-71
2023/05/22 09:13:51;;;;;;;;;;;;;;;30.48;24.27;100292.62;5375451;32;33431;-69
2023/05/22 09:16:53;;;;;;;;;;;;;;;32.73;21.74;100294.22;5360690;32;33808;-69
2023/05/22 09:19:58;;;;;;;;;;;;;;;32.49;21.91;100292.06;5380126;32;34541;-68
2023/05/22 09:23:01;;;;;;;;;;;;;;;33.95;20.10;100287.50;5366434;32;33272;-70
2023/05/22 09:26:03;;;;;;;;;;;;;;;32.08;21.88;100287.50;5375016;32;36923;-83
2023/05/22 09:29:08;;;;;;;;;;;;;;;34.16;20.39;100284.47;5375255;32;35458;-78
2023/05/22 09:32:12;;;;;;;;;;;;;;;33.48;21.02;100289.44;5378965;32;35786;-74
2023/05/22 09:35:14;;;;;;;;;;;;;;;32.40;22.28;100282.41;5367365;32;34355;-70
2023/05/22 09:38:16;;;;;;;;;;;;;;;31.06;24.17;100279.88;5353948;32;46598;-72
2023/05/22 09:41:22;;;;;;;;;;;;;;;32.97;21.60;100272.91;5377730;32;37562;-69
2023/05/22 09:44:25;;;;;;;;;;;;;;;33.05;21.51;100280.87;5366945;32;34336;-69
2023/05/22 09:47:27;;;;;;;;;;;;;;;32.26;22.26;100276.03;5370078;32;34334;-75
2023/05/22 09:50:30;;;;;;;;;;;;;;;30.44;23.14;100275.03;5363453;32;34374;-69
2023/05/22 09:53:32;;;;;;;;;;;;;;;29.39;25.44;100280.69;5355318;32;35753;-74
2023/05/22 09:56:37;;;;;;;;;;;;;;;31.53;23.23;100268.34;5384065;32;34245;-73
2023/05/22 09:59:41;;;;;;;;;;;;;;;32.44;22.01;100259.19;5358342;32;34161;-73
2023/05/22 10:02:45;;;;;;;;;;;;;;;32.71;21.59;100263.63;5382239;32;35475;-74
2023/05/22 10:05:49;;;;;;;;;;;;;;;31.16;22.75;100265.94;5364841;32;47112;-70
2023/05/22 10:08:56;;;;;;;;;;;;;;;32.49;21.11;100267.56;5373367;32;34334;-77
2023/05/22 10:11:58;;;;;;;;;;;;;;;33.46;20.03;100271.66;5372887;32;34328;-71
2023/05/22 10:15:00;;;;;;;;;;;;;;;33.53;19.92;100261.56;5378701;32;34262;-69
2023/05/22 10:18:02;;;;;;;;;;;;;;;32.81;20.86;100258.63;5365807;32;34541;-72
2023/05/22 10:21:04;;;;;;;;;;;;;;;30.89;23.12;100256.75;5366430;32;35423;-73
2023/05/22 10:24:06;;;;;;;;;;;;;;;31.60;22.31;100257.53;5366535;32;34382;-69
2023/05/22 10:27:09;;;;;;;;;;;;;;;31.79;22.58;100256.81;5362108;32;34394;-79
2023/05/22 10:30:44;;;;;;;;;;;;;;;32.16;21.44;100243.81;5352979;32;34418;-84
2023/05/22 10:33:47;;;;;;;;;;;;;;;33.66;19.59;100242.47;5362243;32;34462;-77
2023/05/22 10:37:04;;;;;;;;;;;;;;;33.79;19.77;100238.88;5344599;32;35898;-74
2023/05/22 10:40:20;;;;;;;;;;;;;;;34.73;18.90;100230.84;5371514;32;45782;-71
2023/05/22 10:43:23;;;;;;;;;;;;;;;34.35;19.25;100225.41;5361813;32;35134;-74
2023/05/22 10:46:25;;;;;;;;;;;;;;;37.20;16.26;100216.66;5364826;32;34884;-69
2023/05/22 10:49:27;;;;;;;;;;;;;;;34.07;19.27;100209.44;5355751;32;34389;-70
2023/05/22 10:52:29;;;;;;;;;;;;;;;37.43;16.02;100213.09;5377660;32;34706;-71
2023/05/22 10:55:31;;;;;;;;;;;;;;;33.85;19.88;100214.31;5376553;32;33853;-70
2023/05/22 10:58:36;;;;;;;;;;;;;;;34.59;18.86;100214.81;5374608;32;33636;-70
2023/05/22 11:01:38;;;;;;;;;;;;;;;37.50;16.09;100200.09;5372228;32;33691;-71
2023/05/22 11:04:40;;;;;;;;;;;;;;;38.75;14.46;100190.19;5357973;32;34552;-72
2023/05/22 11:07:42;;;;;;;;;;;;;;;34.40;18.54;100209.25;5365300;32;34229;-70
2023/05/22 11:10:54;;;;;;;;;;;;;;;37.28;16.11;100188.06;5371263;32;35422;-72
2023/05/22 11:14:03;;;;;;;;;;;;;;;37.68;16.05;100190.91;5368687;32;35941;-73
2023/05/22 11:17:05;;;;;;;;;;;;;;;38.54;15.36;100179.94;5375252;32;34390;-72
2023/05/22 11:20:16;;;;;;;;;;;;;;;39.34;14.69;100174.06;5367444;32;34255;-67
2023/05/22 11:23:19;;;;;;;;;;;;;;;37.07;16.53;100182.13;5364964;32;44921;-76
2023/05/22 11:26:22;;;;;;;;;;;;;;;37.36;16.22;100183.09;5373976;32;35176;-68
2023/05/22 11:29:28;;;;;;;;;;;;;;;36.52;16.71;100176.09;5354860;32;34223;-69
2023/05/22 11:32:30;;;;;;;;;;;;;;;35.49;17.27;100172.41;5366756;32;35071;-73
2023/05/22 11:35:32;;;;;;;;;;;;;;;36.12;17.06;100171.19;5345952;32;36052;-70
2023/05/22 11:38:34;;;;;;;;;;;;;;;37.03;16.38;100174.59;5369428;32;34405;-69
2023/05/22 11:41:36;;;;;;;;;;;;;;;35.99;17.15;100171.38;5368217;32;34891;-64
2023/05/22 11:44:39;;;;;;;;;;;;;;;34.97;18.31;100162.84;5364699;32;34381;-69
2023/05/22 11:47:43;;;;;;;;;;;;;;;36.20;17.47;100161.84;5365762;32;34631;-71
2023/05/22 11:50:45;;;;;;;;;;;;;;;39.25;15.12;100151.69;5362374;32;45237;-74
2023/05/22 11:53:48;;;;;;;;;;;;;;;35.73;18.80;100162.44;5381941;32;36453;-72
2023/05/22 11:56:49;;;;;;;;;;;;;;;38.12;16.31;100153.63;5370911;32;34753;-69
2023/05/22 11:59:51;;;;;;;;;;;;;;;38.30;16.29;100154.53;5371136;32;35485;-67
2023/05/22 12:02:53;;;;;;;;;;;;;;;39.27;15.16;100144.00;5371414;32;34537;-77
2023/05/22 12:05:56;;;;;;;;;;;;;;;38.71;15.71;100151.44;5369418;32;34904;-72
2023/05/22 12:08:59;;;;;;;;;;;;;;;36.99;16.99;100152.34;5379618;32;34475;-66
2023/05/22 12:12:01;;;;;;;;;;;;;;;35.01;19.36;100156.72;5358558;32;35551;-73
2023/05/22 12:15:06;;;;;;;;;;;;;;;36.04;18.40;100150.47;5373011;32;35729;-70
2023/05/22 12:18:08;;;;;;;;;;;;;;;34.99;19.20;100147.91;5374347;32;35173;-77
2023/05/22 12:21:11;;;;;;;;;;;;;;;31.11;23.69;100160.72;5367494;32;35163;-72
2023/05/22 12:24:13;;;;;;;;;;;;;;;29.75;25.98;100153.50;5358492;32;34703;-74
2023/05/22 12:27:15;;;;;;;;;;;;;;;31.95;22.93;100130.62;5370758;32;34276;-70
2023/05/22 12:30:17;;;;;;;;;;;;;;;30.46;24.74;100145.53;5377844;32;44354;-69
2023/05/22 12:33:19;;;;;;;;;;;;;;;30.10;25.84;100135.63;5371824;32;34327;-70
2023/05/22 12:36:31;;;;;;;;;;;;;;;29.88;25.80;100147.41;5356981;32;35528;-68
2023/05/22 12:39:33;;;;;;;;;;;;;;;30.90;24.60;100125.47;5373390;32;37526;-63
2023/05/22 12:42:35;;;;;;;;;;;;;;;29.99;26.01;100121.69;5376296;32;34368;-68
2023/05/22 12:45:39;;;;;;;;;;;;;;;30.23;25.67;100129.50;5371438;32;34278;-69
2023/05/22 12:48:41;;;;;;;;;;;;;;;29.86;26.21;100116.97;5357378;32;35076;-74
2023/05/22 12:51:43;;;;;;;;;;;;;;;29.44;26.60;100115.00;5382048;32;34307;-79
2023/05/22 12:54:45;;;;;;;;;;;;;;;29.52;26.63;100118.47;5351764;32;41595;-71
2023/05/22 12:57:47;;;;;;;;;;;;;;;28.57;28.03;100121.81;5384480;32;34171;-71
2023/05/22 13:00:49;;;;;;;;;;;;;;;28.74;28.11;100110.84;5372795;32;35687;-68
2023/05/22 13:03:51;;;;;;;;;;;;;;;28.48;28.42;100104.00;5376335;32;34438;-67
2023/05/22 13:06:53;;;;;;;;;;;;;;;28.84;27.32;100103.28;5370587;32;34609;-68
2023/05/22 13:09:56;;;;;;;;;;;;;;;28.71;27.27;100098.53;5367932;32;34546;-75
2023/05/22 13:12:57;;;;;;;;;;;;;;;29.32;26.77;100092.97;5376536;32;34256;-66
2023/05/22 13:16:00;;;;;;;;;;;;;;;29.48;26.67;100086.50;5363871;32;35630;-73
2023/05/22 13:19:02;;;;;;;;;;;;;;;29.64;26.21;100080.91;5371460;32;34463;-71
2023/05/22 13:22:06;;;;;;;;;;;;;;;29.06;27.62;100086.19;5373827;32;34676;-67
2023/05/22 13:25:08;;;;;;;;;;;;;;;29.32;26.65;100071.31;5367262;32;34464;-72
2023/05/22 13:28:10;;;;;;;;;;;;;;;28.97;27.33;100081.03;5356485;32;34231;-73
2023/05/22 13:31:12;;;;;;;;;;;;;;;29.27;27.22;100084.59;5367880;32;34907;-73
2023/05/22 13:34:14;;;;;;;;;;;;;;;29.05;27.86;100071.00;5370074;32;34203;-73
2023/05/22 13:37:19;;;;;;;;;;;;;;;29.13;27.37;100068.16;5358489;32;44228;-71
2023/05/22 13:40:21;;;;;;;;;;;;;;;29.26;27.44;100072.09;5376579;32;34387;-70
2023/05/22 13:43:23;;;;;;;;;;;;;;;29.24;27.55;100076.81;5373235;32;34563;-70
2023/05/22 13:46:25;;;;;;;;;;;;;;;29.75;27.09;100064.13;5368629;32;35497;-78
2023/05/22 13:49:28;;;;;;;;;;;;;;;30.38;26.26;100064.34;5355532;32;35579;-73
2023/05/22 13:52:30;;;;;;;;;;;;;;;30.63;25.78;100064.75;5367604;32;34160;-73
2023/05/22 13:55:32;;;;;;;;;;;;;;;29.73;26.39;100065.38;5378990;32;34902;-77
2023/05/22 13:58:34;;;;;;;;;;;;;;;28.59;27.76;100072.94;5369034;32;35206;-77
2023/05/22 14:01:36;;;;;;;;;;;;;;;29.90;26.63;100056.81;5371290;32;34321;-74
2023/05/22 14:04:39;;;;;;;;;;;;;;;28.37;28.47;100066.59;5371042;32;34491;-71
2023/05/22 14:07:41;;;;;;;;;;;;;;;29.35;27.65;100054.69;5365533;32;34414;-72
2023/05/22 14:10:43;;;;;;;;;;;;;;;29.27;27.92;100060.22;5351486;32;826870;-71
2023/05/22 14:13:45;;;;;;;;;;;;;;;29.98;26.73;100046.87;5369757;32;34665;-67
2023/05/22 14:16:47;;;;;;;;;;;;;;;29.02;27.50;100049.69;5372572;32;46852;-75
2023/05/22 14:19:49;;;;;;;;;;;;;;;28.33;28.62;100043.63;5373185;32;35907;-72
2023/05/22 14:22:51;;;;;;;;;;;;;;;28.80;28.10;100045.22;5374234;32;35417;-74
2023/05/22 14:25:59;;;;;;;;;;;;;;;29.03;27.74;100039.72;5372657;32;34173;-69
2023/05/22 14:29:01;;;;;;;;;;;;;;;29.30;27.54;100040.87;5366460;32;34297;-67
2023/05/22 14:32:03;;;;;;;;;;;;;;;29.42;27.65;100044.78;5374199;32;35705;-66
2023/05/22 14:35:05;;;;;;;;;;;;;;;28.81;28.49;100036.91;5348497;32;34288;-74
2023/05/22 14:38:07;;;;;;;;;;;;;;;28.80;28.62;100037.09;5370565;32;35458;-70
2023/05/22 14:41:09;;;;;;;;;;;;;;;28.54;28.58;100032.97;5373309;32;34344;-71
2023/05/22 14:44:13;;;;;;;;;;;;;;;29.38;27.39;100038.09;5378876;32;36456;-67
2023/05/22 14:47:15;;;;;;;;;;;;;;;29.93;26.52;100032.03;5361243;32;43530;-69
2023/05/22 14:50:18;;;;;;;;;;;;;;;29.39;27.57;100029.78;5360182;32;34301;-68
2023/05/22 14:53:22;;;;;;;;;;;;;;;29.21;27.75;100031.22;5376423;32;36021;-69
2023/05/22 14:56:25;;;;;;;;;;;;;;;28.91;28.17;100031.19;5371658;32;33402;-68
2023/05/22 14:59:27;;;;;;;;;;;;;;;29.35;27.44;100030.34;5373575;32;34208;-76
2023/05/22 15:02:30;;;;;;;;;;;;;;;29.44;27.11;100034.63;5366820;32;34374;-73
2023/05/22 15:05:32;;;;;;;;;;;;;;;29.60;27.33;100030.84;5367456;32;34902;-72
2023/05/22 15:08:35;;;;;;;;;;;;;;;29.60;27.29;100023.56;5379216;32;34429;-74
2023/05/22 15:11:37;;;;;;;;;;;;;;;29.49;27.09;100020.50;5353820;32;35748;-74
2023/05/22 15:14:39;;;;;;;;;;;;;;;29.54;27.27;100016.22;5376979;32;34403;-70
2023/05/22 15:17:41;;;;;;;;;;;;;;;29.99;26.60;100022.28;5377729;32;34285;-70
2023/05/22 15:20:44;;;;;;;;;;;;;;;30.75;25.55;100019.78;5369803;32;34228;-76
2023/05/22 15:23:46;;;;;;;;;;;;;;;30.45;25.98;100011.84;5374699;32;44711;-69
2023/05/22 15:26:51;;;;;;;;;;;;;;;30.14;26.53;100011.38;5373777;32;35910;-70
2023/05/22 15:29:53;;;;;;;;;;;;;;;30.26;26.48;100015.25;5371036;32;34422;-77
2023/05/22 15:32:55;;;;;;;;;;;;;;;29.96;27.21;100009.16;5368773;32;35421;-73
2023/05/22 15:35:57;;;;;;;;;;;;;;;29.97;27.51;100004.56;5349898;32;34747;-77
2023/05/22 15:38:59;;;;;;;;;;;;;;;30.02;27.43;100002.94;5369916;32;34501;-75